Time;durP1;ratioP1;P1;durP2;ratioP2;P2;SDS_P1;SDS_P2;PMS_P1;PMS_P2;Temp;Humidity;BMP_temperature;BMP_pressure;BME280_temperature;BME280_humidity;BME280_pressure;Samples;Min_cycle;Max_cycle;Signal;HPM_P1;HPM_P2
2021/03/12 00:00:01;;;;;;;0.40;0.40;;;;;;;;;;5025683;28;20216;-54
2021/03/12 00:02:27;;;;;;;3.22;0.45;;;;;;;;;;5022293;28;20201;-54
2021/03/12 00:04:53;;;;;;;0.45;0.30;;;;;;;;;;5020618;28;20194;-54
2021/03/12 00:07:19;;;;;;;0.57;0.50;;;;;;;;;;5027792;28;20191;-54
2021/03/12 00:09:45;;;;;;;0.52;0.30;;;;;;;;;;5016221;28;20181;-54
2021/03/12 00:12:11;;;;;;;0.28;0.28;;;;;;;;;;5028568;28;20196;-54
2021/03/12 00:14:37;;;;;;;0.77;0.30;;;;;;;;;;5019153;28;20211;-55
2021/03/12 00:17:03;;;;;;;1.52;0.30;;;;;;;;;;5032220;28;20184;-55
2021/03/12 00:19:29;;;;;;;0.57;0.32;;;;;;;;;;5033456;28;20645;-55
2021/03/12 00:21:55;;;;;;;0.73;0.50;;;;;;;;;;5030061;28;20211;-55
2021/03/12 00:24:22;;;;;;;0.90;0.40;;;;;;;;;;5016147;28;20188;-55
2021/03/12 00:26:48;;;;;;;0.73;0.40;;;;;;;;;;5014912;28;20231;-55
2021/03/12 00:29:14;;;;;;;1.00;0.40;;;;;;;;;;5021464;28;20180;-55
2021/03/12 00:31:40;;;;;;;1.67;0.50;;;;;;;;;;5018306;28;20196;-55
2021/03/12 00:34:06;;;;;;;0.50;0.50;;;;;;;;;;5025091;28;20190;-54
2021/03/12 00:36:32;;;;;;;0.50;0.40;;;;;;;;;;5025040;28;20184;-54
2021/03/12 00:38:58;;;;;;;0.40;0.30;;;;;;;;;;5034640;28;20191;-54
2021/03/12 00:41:23;;;;;;;0.68;0.40;;;;;;;;;;5034113;28;20276;-55
2021/03/12 00:43:50;;;;;;;0.32;0.32;;;;;;;;;;5032155;28;20184;-55
2021/03/12 00:46:16;;;;;;;0.70;0.40;;;;;;;;;;5026020;28;20212;-55
2021/03/12 00:48:42;;;;;;;0.60;0.35;;;;;;;;;;5034319;28;20463;-55
2021/03/12 00:51:08;;;;;;;0.20;0.20;;;;;;;;;;5027331;28;20176;-55
2021/03/12 00:53:34;;;;;;;0.63;0.30;;;;;;;;;;5028362;28;20191;-55
2021/03/12 00:56:00;;;;;;;0.47;0.43;;;;;;;;;;5033771;28;20175;-55
2021/03/12 00:58:26;;;;;;;0.85;0.30;;;;;;;;;;5016397;28;20188;-54
2021/03/12 01:00:52;;;;;;;0.80;0.45;;;;;;;;;;5021366;28;20208;-54
2021/03/12 01:03:19;;;;;;;0.82;0.50;;;;;;;;;;5025435;28;20176;-54
2021/03/12 01:05:45;;;;;;;0.65;0.50;;;;;;;;;;5031878;28;20190;-54
2021/03/12 01:08:12;;;;;;;0.70;0.45;;;;;;;;;;5034482;28;20172;-54
2021/03/12 01:10:38;;;;;;;0.45;0.40;;;;;;;;;;5027909;28;20180;-54
2021/03/12 01:13:04;;;;;;;0.80;0.30;;;;;;;;;;5014732;28;20288;-54
2021/03/12 01:15:31;;;;;;;0.35;0.35;;;;;;;;;;5026315;28;20266;-54
2021/03/12 01:17:57;;;;;;;1.02;0.35;;;;;;;;;;5033878;28;20242;-54
2021/03/12 01:20:29;;;;;;;0.68;0.55;;;;;;;;;;5030654;28;20204;-54
2021/03/12 01:22:56;;;;;;;0.50;0.40;;;;;;;;;;5022244;28;20202;-54
2021/03/12 01:25:24;;;;;;;0.55;0.40;;;;;;;;;;5015648;28;20177;-54
2021/03/12 01:27:51;;;;;;;0.35;0.35;;;;;;;;;;5014187;28;20181;-54
2021/03/12 01:30:17;;;;;;;0.32;0.22;;;;;;;;;;5014324;28;20180;-54
2021/03/12 01:32:43;;;;;;;0.30;0.28;;;;;;;;;;5015302;28;20192;-54
2021/03/12 01:35:10;;;;;;;0.65;0.40;;;;;;;;;;5022805;28;20595;-54
2021/03/12 01:37:36;;;;;;;0.25;0.25;;;;;;;;;;5016062;28;20180;-55
2021/03/12 01:40:03;;;;;;;0.85;0.60;;;;;;;;;;5015809;28;20207;-55
2021/03/12 01:42:28;;;;;;;2.38;0.60;;;;;;;;;;5031063;28;20183;-55
2021/03/12 01:44:54;;;;;;;0.40;0.30;;;;;;;;;;5020468;28;20184;-55
2021/03/12 01:47:20;;;;;;;0.50;0.30;;;;;;;;;;5019158;28;20208;-55
2021/03/12 01:49:46;;;;;;;1.85;0.40;;;;;;;;;;5028232;28;20567;-55
2021/03/12 01:52:12;;;;;;;0.32;0.30;;;;;;;;;;5025388;28;20190;-55
2021/03/12 01:54:38;;;;;;;0.50;0.30;;;;;;;;;;5013660;28;20604;-55
2021/03/12 01:57:05;;;;;;;0.40;0.40;;;;;;;;;;5021114;28;20191;-55
2021/03/12 01:59:32;;;;;;;1.15;0.40;;;;;;;;;;5033771;28;20187;-55
2021/03/12 02:01:58;;;;;;;0.60;0.30;;;;;;;;;;5033702;28;20290;-55
2021/03/12 02:04:24;;;;;;;0.75;0.47;;;;;;;;;;5027886;28;20199;-55
2021/03/12 02:06:50;;;;;;;0.40;0.40;;;;;;;;;;5026959;28;20238;-55
2021/03/12 02:09:16;;;;;;;0.52;0.40;;;;;;;;;;5033448;28;20180;-55
2021/03/12 02:11:45;;;;;;;0.57;0.40;;;;;;;;;;5013157;28;20184;-55
2021/03/12 02:14:15;;;;;;;1.15;0.40;;;;;;;;;;5018903;28;20188;-55
2021/03/12 02:16:44;;;;;;;0.55;0.32;;;;;;;;;;5029961;28;20580;-54
2021/03/12 02:19:20;;;;;;;0.75;0.40;;;;;;;;;;5033134;28;20245;-54
2021/03/12 02:21:48;;;;;;;0.35;0.30;;;;;;;;;;5020268;28;20204;-54
2021/03/12 02:24:32;;;;;;;0.73;0.38;;;;;;;;;;5032751;28;20184;-54
2021/03/12 02:26:58;;;;;;;0.45;0.45;;;;;;;;;;5033549;28;20187;-54
2021/03/12 02:29:25;;;;;;;0.88;0.57;;;;;;;;;;5031625;28;20225;-54
2021/03/12 02:31:53;;;;;;;0.40;0.38;;;;;;;;;;5013628;28;20216;-54
2021/03/12 02:34:21;;;;;;;0.68;0.50;;;;;;;;;;5015492;28;20187;-53
2021/03/12 02:36:48;;;;;;;1.30;0.43;;;;;;;;;;5027923;28;20226;-53
2021/03/12 02:39:17;;;;;;;0.63;0.40;;;;;;;;;;5036798;28;20191;-53
2021/03/12 02:41:44;;;;;;;0.45;0.40;;;;;;;;;;5036922;28;20199;-53
2021/03/12 02:44:10;;;;;;;1.02;0.32;;;;;;;;;;5027088;28;20259;-53
2021/03/12 02:46:37;;;;;;;0.38;0.35;;;;;;;;;;5020229;28;20192;-54
2021/03/12 02:49:03;;;;;;;0.50;0.35;;;;;;;;;;5022297;28;20180;-54
2021/03/12 02:51:29;;;;;;;0.28;0.28;;;;;;;;;;5027637;28;20182;-54
2021/03/12 02:53:55;;;;;;;0.50;0.40;;;;;;;;;;5033779;28;20208;-54
2021/03/12 02:56:22;;;;;;;0.60;0.28;;;;;;;;;;5035083;28;20184;-54
2021/03/12 02:58:50;;;;;;;0.30;0.22;;;;;;;;;;5026461;28;20192;-54
2021/03/12 03:01:17;;;;;;;0.50;0.32;;;;;;;;;;5016720;28;20208;-54
2021/03/12 03:03:43;;;;;;;0.52;0.30;;;;;;;;;;5026253;28;20563;-54
2021/03/12 03:06:11;;;;;;;0.28;0.25;;;;;;;;;;5028087;28;20188;-54
2021/03/12 03:08:38;;;;;;;0.28;0.20;;;;;;;;;;5030595;28;20226;-54
2021/03/12 03:11:06;;;;;;;0.28;0.28;;;;;;;;;;5035987;28;20219;-54
2021/03/12 03:13:33;;;;;;;0.50;0.30;;;;;;;;;;5023213;28;20631;-54
2021/03/12 03:16:00;;;;;;;0.75;0.20;;;;;;;;;;5019429;28;20193;-54
2021/03/12 03:18:27;;;;;;;0.77;0.40;;;;;;;;;;5019879;28;20271;-54
2021/03/12 03:20:54;;;;;;;0.40;0.40;;;;;;;;;;5031338;28;20607;-54
2021/03/12 03:23:20;;;;;;;0.32;0.32;;;;;;;;;;5027372;28;20183;-54
2021/03/12 03:25:46;;;;;;;0.30;0.30;;;;;;;;;;5025625;28;20191;-54
2021/03/12 03:28:12;;;;;;;0.52;0.32;;;;;;;;;;5016643;28;20196;-54
2021/03/12 03:30:38;;;;;;;0.70;0.22;;;;;;;;;;5019521;28;20199;-54
2021/03/12 03:33:04;;;;;;;0.20;0.20;;;;;;;;;;5036470;28;20241;-54
2021/03/12 03:35:30;;;;;;;0.40;0.30;;;;;;;;;;5031898;28;20511;-54
2021/03/12 03:37:56;;;;;;;0.30;0.28;;;;;;;;;;5022175;28;20184;-54
2021/03/12 03:40:22;;;;;;;1.08;0.30;;;;;;;;;;5032730;28;20211;-54
2021/03/12 03:42:50;;;;;;;0.38;0.30;;;;;;;;;;5035933;28;20186;-54
2021/03/12 03:45:16;;;;;;;0.20;0.15;;;;;;;;;;5032852;28;20726;-54
2021/03/12 03:47:44;;;;;;;0.20;0.20;;;;;;;;;;5031782;28;20560;-54
2021/03/12 03:50:12;;;;;;;0.32;0.28;;;;;;;;;;5017252;28;20180;-54
2021/03/12 03:52:39;;;;;;;0.50;0.35;;;;;;;;;;5019618;28;20187;-54
2021/03/12 03:55:07;;;;;;;0.20;0.10;;;;;;;;;;5028117;28;20188;-54
2021/03/12 03:57:33;;;;;;;0.10;0.10;;;;;;;;;;5025482;28;20184;-54
2021/03/12 04:00:01;;;;;;;0.30;0.20;;;;;;;;;;5016101;28;20619;-54
2021/03/12 04:02:27;;;;;;;0.10;0.10;;;;;;;;;;5016444;28;20231;-54
2021/03/12 04:04:53;;;;;;;0.93;0.30;;;;;;;;;;5026479;28;20433;-54
2021/03/12 04:07:20;;;;;;;0.22;0.22;;;;;;;;;;5017016;28;20579;-54
2021/03/12 04:09:50;;;;;;;0.75;0.20;;;;;;;;;;5015383;28;20176;-54
2021/03/12 04:12:16;;;;;;;0.15;0.15;;;;;;;;;;5021968;28;20210;-54
2021/03/12 04:14:44;;;;;;;0.57;0.20;;;;;;;;;;5027485;28;20268;-55
2021/03/12 04:17:11;;;;;;;0.30;0.20;;;;;;;;;;5015621;28;20168;-55
2021/03/12 04:19:37;;;;;;;0.47;0.20;;;;;;;;;;5018404;28;20181;-54
2021/03/12 04:22:03;;;;;;;0.20;0.20;;;;;;;;;;5031235;28;20704;-54
2021/03/12 04:24:30;;;;;;;0.13;0.10;;;;;;;;;;5028174;28;20176;-54
2021/03/12 04:26:56;;;;;;;0.45;0.22;;;;;;;;;;5017707;28;21389;-54
2021/03/12 04:29:22;;;;;;;0.40;0.30;;;;;;;;;;5033297;28;20182;-54
2021/03/12 04:31:49;;;;;;;0.20;0.20;;;;;;;;;;5035209;28;20188;-54
2021/03/12 04:34:15;;;;;;;0.22;0.20;;;;;;;;;;5029105;28;20234;-54
2021/03/12 04:36:42;;;;;;;0.10;0.10;;;;;;;;;;5021638;28;20184;-54
2021/03/12 04:39:08;;;;;;;0.22;0.17;;;;;;;;;;5034178;28;20245;-54
2021/03/12 04:41:35;;;;;;;0.47;0.10;;;;;;;;;;5034666;28;20246;-54
2021/03/12 04:44:02;;;;;;;0.20;0.20;;;;;;;;;;5029828;28;20467;-55
2021/03/12 04:46:28;;;;;;;1.95;0.20;;;;;;;;;;5024799;28;20294;-54
2021/03/12 04:48:54;;;;;;;0.38;0.28;;;;;;;;;;5022297;28;20211;-54
2021/03/12 04:51:20;;;;;;;0.30;0.20;;;;;;;;;;5029422;28;20804;-54
2021/03/12 04:53:46;;;;;;;0.32;0.30;;;;;;;;;;5034267;28;20192;-55
2021/03/12 04:56:12;;;;;;;0.30;0.30;;;;;;;;;;5034003;28;20194;-55
2021/03/12 04:58:39;;;;;;;0.85;0.30;;;;;;;;;;5015102;28;20567;-55
2021/03/12 05:01:09;;;;;;;0.22;0.20;;;;;;;;;;5019514;28;20652;-55
2021/03/12 05:03:35;;;;;;;0.13;0.13;;;;;;;;;;5019230;28;20239;-55
2021/03/12 05:06:01;;;;;;;0.20;0.20;;;;;;;;;;5023681;28;20207;-54
2021/03/12 05:08:28;;;;;;;1.58;0.20;;;;;;;;;;5021787;28;20272;-54
2021/03/12 05:11:07;;;;;;;0.63;0.22;;;;;;;;;;5016812;28;20189;-55
2021/03/12 05:13:33;;;;;;;0.40;0.20;;;;;;;;;;5026119;28;20208;-55
2021/03/12 05:15:59;;;;;;;0.28;0.15;;;;;;;;;;5018882;28;20207;-55
2021/03/12 05:18:25;;;;;;;0.25;0.20;;;;;;;;;;5019408;28;20188;-55
2021/03/12 05:20:51;;;;;;;0.20;0.20;;;;;;;;;;5031490;28;20207;-55
2021/03/12 05:23:18;;;;;;;0.20;0.13;;;;;;;;;;5018053;28;20195;-55
2021/03/12 05:25:44;;;;;;;0.55;0.30;;;;;;;;;;5033733;28;20279;-55
2021/03/12 05:28:10;;;;;;;0.40;0.25;;;;;;;;;;5022363;28;20283;-55
2021/03/12 05:30:37;;;;;;;0.32;0.20;;;;;;;;;;5015299;28;20191;-55
2021/03/12 05:33:03;;;;;;;0.22;0.22;;;;;;;;;;5014331;28;20199;-55
2021/03/12 05:35:29;;;;;;;0.60;0.30;;;;;;;;;;5019922;28;20183;-55
2021/03/12 05:37:55;;;;;;;0.43;0.30;;;;;;;;;;5023174;28;20206;-55
2021/03/12 05:40:21;;;;;;;0.60;0.20;;;;;;;;;;5034245;28;20207;-55
2021/03/12 05:42:49;;;;;;;0.68;0.28;;;;;;;;;;5016061;28;20180;-55
2021/03/12 05:45:17;;;;;;;1.48;0.28;;;;;;;;;;5025871;28;20824;-55
2021/03/12 05:47:43;;;;;;;0.35;0.30;;;;;;;;;;5030826;28;20180;-55
2021/03/12 05:50:09;;;;;;;0.28;0.20;;;;;;;;;;5014638;28;20173;-54
2021/03/12 05:52:35;;;;;;;0.30;0.30;;;;;;;;;;5016682;28;20548;-54
2021/03/12 05:55:02;;;;;;;0.88;0.30;;;;;;;;;;5012662;28;20199;-54
2021/03/12 05:57:32;;;;;;;0.57;0.30;;;;;;;;;;5024188;28;20626;-54
2021/03/12 05:59:58;;;;;;;0.47;0.30;;;;;;;;;;5023757;28;20184;-55
2021/03/12 06:02:25;;;;;;;0.20;0.20;;;;;;;;;;5032990;28;20196;-55
2021/03/12 06:04:51;;;;;;;0.95;0.30;;;;;;;;;;5028617;28;20568;-55
2021/03/12 06:07:17;;;;;;;0.38;0.13;;;;;;;;;;5021136;28;20183;-55
2021/03/12 06:09:46;;;;;;;0.25;0.25;;;;;;;;;;5033505;28;20176;-55
2021/03/12 06:12:13;;;;;;;1.33;0.60;;;;;;;;;;5019070;28;20212;-54
2021/03/12 06:15:05;;;;;;;2.40;0.68;;;;;;;;;;5032975;28;20211;-52
2021/03/12 06:17:43;;;;;;;3.13;1.10;;;;;;;;;;5024432;28;20249;-53
2021/03/12 06:20:13;;;;;;;10.05;1.38;;;;;;;;;;5035057;28;20237;-58
2021/03/12 06:22:49;;;;;;;5.43;1.70;;;;;;;;;;5033696;28;20180;-52
2021/03/12 06:25:20;;;;;;;3.92;1.40;;;;;;;;;;5020943;28;20267;-56
2021/03/12 06:27:47;;;;;;;5.55;2.13;;;;;;;;;;5017482;28;20180;-56
2021/03/12 06:32:01;;;;;;;7.78;1.85;;;;;;;;;;5166121;27;20478;-56
2021/03/12 06:34:28;;;;;;;6.65;2.00;;;;;;;;;;5152149;27;20194;-51
2021/03/12 06:36:54;;;;;;;8.45;2.13;;;;;;;;;;5152334;27;20197;-52
2021/03/12 06:39:29;;;;;;;5.47;1.73;;;;;;;;;;5132529;27;20256;-55
2021/03/12 06:41:56;;;;;;;7.68;2.25;;;;;;;;;;5146143;27;20454;-49
2021/03/12 06:44:28;;;;;;;6.32;1.95;;;;;;;;;;5152280;27;20180;-49
2021/03/12 06:46:54;;;;;;;5.93;1.67;;;;;;;;;;5152472;27;20593;-49
2021/03/12 06:49:20;;;;;;;3.33;1.60;;;;;;;;;;5149862;27;20180;-49
2021/03/12 06:51:56;;;;;;;5.90;1.60;;;;;;;;;;5151524;27;20230;-49
2021/03/12 06:54:22;;;;;;;4.03;1.50;;;;;;;;;;5149403;27;20179;-50
2021/03/12 06:56:48;;;;;;;3.95;1.40;;;;;;;;;;5151688;27;20184;-49
2021/03/12 06:59:24;;;;;;;5.38;1.45;;;;;;;;;;5151619;27;20229;-49
2021/03/12 07:02:00;;;;;;;8.48;1.88;;;;;;;;;;5151624;27;20171;-51
2021/03/12 07:04:27;;;;;;;6.70;1.40;;;;;;;;;;5151635;27;20229;-51
2021/03/12 07:06:54;;;;;;;6.63;2.22;;;;;;;;;;5150510;27;20199;-51
2021/03/12 07:09:21;;;;;;;5.63;1.52;;;;;;;;;;5136592;27;20185;-51
2021/03/12 07:12:00;;;;;;;4.88;1.63;;;;;;;;;;5131491;28;20196;-51
2021/03/12 07:14:27;;;;;;;5.45;1.75;;;;;;;;;;5148256;27;20549;-51
2021/03/12 07:16:53;;;;;;;7.88;1.42;;;;;;;;;;5133365;27;20177;-51
2021/03/12 07:19:19;;;;;;;8.77;1.92;;;;;;;;;;5145581;27;20184;-51
2021/03/12 07:21:47;;;;;;;5.72;1.30;;;;;;;;;;5151826;27;20496;-51
2021/03/12 07:24:14;;;;;;;5.28;1.40;;;;;;;;;;5151824;27;20472;-51
2021/03/12 07:26:49;;;;;;;3.97;0.95;;;;;;;;;;5145068;27;20181;-51
2021/03/12 07:29:17;;;;;;;3.85;1.27;;;;;;;;;;5144960;27;20190;-51
2021/03/12 07:31:44;;;;;;;5.18;1.10;;;;;;;;;;5151277;27;20199;-52
2021/03/12 07:34:18;;;;;;;5.25;1.33;;;;;;;;;;5141666;27;20185;-51
2021/03/12 07:36:46;;;;;;;3.67;1.42;;;;;;;;;;5126661;28;20180;-51
2021/03/12 07:39:14;;;;;;;2.50;1.20;;;;;;;;;;5110483;28;20432;-51
2021/03/12 07:41:42;;;;;;;4.95;1.20;;;;;;;;;;5105972;28;20672;-51
2021/03/12 07:44:11;;;;;;;4.35;1.10;;;;;;;;;;5096362;28;20169;-51
2021/03/12 07:46:38;;;;;;;4.80;1.20;;;;;;;;;;5096453;28;20178;-51
2021/03/12 07:49:24;;;;;;;3.25;1.10;;;;;;;;;;5096910;28;20178;-51
2021/03/12 07:51:50;;;;;;;5.70;1.60;;;;;;;;;;5111547;28;20591;-51
2021/03/12 07:54:16;;;;;;;3.33;1.20;;;;;;;;;;5116805;28;20173;-51
2021/03/12 07:56:45;;;;;;;3.40;1.20;;;;;;;;;;5116410;28;20586;-51
2021/03/12 07:59:11;;;;;;;2.58;1.20;;;;;;;;;;5110279;28;20711;-51
2021/03/12 08:01:53;;;;;;;2.35;1.00;;;;;;;;;;5096092;28;20553;-51
2021/03/12 08:04:37;;;;;;;3.08;1.05;;;;;;;;;;5101551;28;20218;-51
2021/03/12 08:07:19;;;;;;;2.50;1.00;;;;;;;;;;5116747;28;20190;-51
2021/03/12 08:09:46;;;;;;;1.55;0.90;;;;;;;;;;5116453;28;20169;-51
2021/03/12 08:12:31;;;;;;;3.15;1.05;;;;;;;;;;5116808;28;20602;-51
2021/03/12 08:15:12;;;;;;;1.88;0.88;;;;;;;;;;5115800;28;20204;-51
2021/03/12 08:17:38;;;;;;;10.20;1.23;;;;;;;;;;5119487;27;20283;-51
2021/03/12 08:20:22;;;;;;;4.18;1.00;;;;;;;;;;5125138;27;20188;-51
2021/03/12 08:22:48;;;;;;;2.95;1.15;;;;;;;;;;5116130;28;20516;-51
2021/03/12 08:25:35;;;;;;;3.83;1.08;;;;;;;;;;5116118;28;20631;-51
2021/03/12 08:28:07;;;;;;;1.33;0.93;;;;;;;;;;5115785;28;20176;-51
2021/03/12 08:30:36;;;;;;;3.22;1.10;;;;;;;;;;5115297;28;20203;-51
2021/03/12 08:33:02;;;;;;;1.77;0.85;;;;;;;;;;5116657;28;20209;-52
2021/03/12 08:35:34;;;;;;;1.20;0.80;;;;;;;;;;5115876;28;20215;-51
2021/03/12 08:38:01;;;;;;;1.98;0.85;;;;;;;;;;5108521;28;20703;-51
2021/03/12 08:40:27;;;;;;;2.88;0.73;;;;;;;;;;5107318;27;20567;-51
2021/03/12 08:43:00;;;;;;;2.88;1.13;;;;;;;;;;5111181;28;20192;-51
2021/03/12 08:45:36;;;;;;;3.60;0.93;;;;;;;;;;5105767;28;20177;-51
2021/03/12 08:48:06;;;;;;;2.40;1.00;;;;;;;;;;5115153;28;20191;-51
2021/03/12 08:50:36;;;;;;;2.30;0.95;;;;;;;;;;5117001;27;20474;-51
2021/03/12 08:53:02;;;;;;;2.10;0.93;;;;;;;;;;5112029;28;20315;-51
2021/03/12 08:55:28;;;;;;;1.85;0.85;;;;;;;;;;5105327;28;20227;-51
2021/03/12 08:58:30;;;;;;;1.35;0.60;;;;;;;;;;5108692;27;20503;-56
2021/03/12 09:01:00;;;;;;;2.03;0.73;;;;;;;;;;5015140;28;20570;-52
2021/03/12 09:03:29;;;;;;;1.23;0.73;;;;;;;;;;5081172;28;20198;-51
2021/03/12 09:06:01;;;;;;;2.75;0.95;;;;;;;;;;5094396;28;20173;-52
2021/03/12 09:08:28;;;;;;;1.80;0.85;;;;;;;;;;5104526;27;20602;-51
2021/03/12 09:10:55;;;;;;;1.65;1.00;;;;;;;;;;5116975;27;20201;-51
2021/03/12 09:13:22;;;;;;;7.05;4.35;;;;;;;;;;5092950;28;20213;-51
2021/03/12 09:15:49;;;;;;;15.90;9.90;;;;;;;;;;5128480;27;20200;-51
2021/03/12 09:18:19;;;;;;;32.55;18.35;;;;;;;;;;5128955;27;20781;-51
2021/03/12 09:20:49;;;;;;;30.55;16.52;;;;;;;;;;5114816;28;20680;-51
2021/03/12 09:23:15;;;;;;;35.35;20.45;;;;;;;;;;5117531;27;20192;-51
2021/03/12 09:25:41;;;;;;;36.88;20.38;;;;;;;;;;5123180;27;20177;-51
2021/03/12 09:28:09;;;;;;;36.38;19.33;;;;;;;;;;5110743;28;20233;-52
2021/03/12 09:30:37;;;;;;;38.30;22.52;;;;;;;;;;5117186;27;20232;-51
2021/03/12 09:33:04;;;;;;;36.53;20.65;;;;;;;;;;5115818;27;20168;-51
2021/03/12 09:35:30;;;;;;;35.20;21.33;;;;;;;;;;5115024;28;20177;-51
2021/03/12 09:37:58;;;;;;;40.50;21.48;;;;;;;;;;5101729;27;20174;-51
2021/03/12 09:40:34;;;;;;;37.03;20.23;;;;;;;;;;5115679;27;21752;-51
2021/03/12 09:43:01;;;;;;;34.50;20.50;;;;;;;;;;5111756;27;20185;-51
2021/03/12 09:45:27;;;;;;;34.88;20.38;;;;;;;;;;5115365;27;20172;-51
2021/03/12 09:47:53;;;;;;;37.55;21.33;;;;;;;;;;5121937;27;20451;-51
2021/03/12 09:50:22;;;;;;;34.55;19.77;;;;;;;;;;5123384;27;20200;-51
2021/03/12 09:52:48;;;;;;;36.42;20.20;;;;;;;;;;5130159;27;20571;-52
2021/03/12 09:55:15;;;;;;;31.65;18.15;;;;;;;;;;5125271;27;20451;-52
2021/03/12 09:57:41;;;;;;;25.85;15.88;;;;;;;;;;5130551;27;20187;-52
2021/03/12 10:00:08;;;;;;;23.40;13.57;;;;;;;;;;5122960;27;20205;-52
2021/03/12 10:02:34;;;;;;;23.27;12.73;;;;;;;;;;5114697;28;20206;-52
2021/03/12 10:05:01;;;;;;;19.50;10.13;;;;;;;;;;5115243;27;20181;-52
2021/03/12 10:07:37;;;;;;;18.00;9.90;;;;;;;;;;5115080;28;20272;-52
2021/03/12 10:10:20;;;;;;;15.45;9.13;;;;;;;;;;5114418;28;20197;-52
2021/03/12 10:12:46;;;;;;;15.55;8.85;;;;;;;;;;5111655;27;20564;-52
2021/03/12 10:15:21;;;;;;;18.00;8.15;;;;;;;;;;5108764;28;20232;-52
2021/03/12 10:17:48;;;;;;;16.63;6.82;;;;;;;;;;5112596;28;20186;-52
2021/03/12 10:20:20;;;;;;;11.68;6.30;;;;;;;;;;5094430;28;20178;-52
2021/03/12 10:23:05;;;;;;;16.95;6.57;;;;;;;;;;5106882;28;20344;-52
2021/03/12 10:25:33;;;;;;;13.98;6.47;;;;;;;;;;5108352;27;20183;-52
2021/03/12 10:28:00;;;;;;;15.65;6.47;;;;;;;;;;5106881;28;20239;-54
2021/03/12 10:30:31;;;;;;;15.00;5.88;;;;;;;;;;5113745;28;20594;-52
2021/03/12 10:32:58;;;;;;;12.73;6.10;;;;;;;;;;5104245;28;20181;-51
2021/03/12 10:35:24;;;;;;;13.35;5.65;;;;;;;;;;5110819;28;20196;-51
2021/03/12 10:37:51;;;;;;;20.95;5.95;;;;;;;;;;5110380;28;20560;-51
2021/03/12 10:40:18;;;;;;;16.00;5.55;;;;;;;;;;5112631;28;20626;-51
2021/03/12 10:42:44;;;;;;;15.45;5.75;;;;;;;;;;5097349;28;20836;-51
2021/03/12 10:45:19;;;;;;;11.15;5.20;;;;;;;;;;5113417;28;20434;-51
2021/03/12 10:48:04;;;;;;;13.07;5.50;;;;;;;;;;5094954;28;20189;-51
2021/03/12 10:50:32;;;;;;;11.80;5.00;;;;;;;;;;5102814;28;20512;-52
2021/03/12 10:53:02;;;;;;;11.43;4.55;;;;;;;;;;5108133;28;20179;-51
2021/03/12 10:55:30;;;;;;;8.57;4.25;;;;;;;;;;5120363;28;20184;-51
2021/03/12 10:57:59;;;;;;;8.25;3.60;;;;;;;;;;5122155;28;20180;-51
2021/03/12 11:00:25;;;;;;;6.38;2.90;;;;;;;;;;5125662;28;20173;-51
2021/03/12 11:02:56;;;;;;;5.25;2.28;;;;;;;;;;5103671;28;20193;-51
2021/03/12 11:05:22;;;;;;;4.05;1.98;;;;;;;;;;5112358;28;20177;-51
2021/03/12 11:07:49;;;;;;;4.05;1.73;;;;;;;;;;5113939;28;20169;-51
2021/03/12 11:10:15;;;;;;;5.00;1.50;;;;;;;;;;5094869;28;20212;-51
2021/03/12 11:12:46;;;;;;;2.97;1.50;;;;;;;;;;5122822;28;20182;-51
2021/03/12 11:15:13;;;;;;;2.40;1.25;;;;;;;;;;5114403;28;20280;-51
2021/03/12 11:17:44;;;;;;;4.35;1.42;;;;;;;;;;5103248;28;20230;-51
2021/03/12 11:20:10;;;;;;;1.90;1.15;;;;;;;;;;5097613;28;20178;-51
2021/03/12 11:22:36;;;;;;;3.03;1.35;;;;;;;;;;5110837;27;20187;-51
2021/03/12 11:25:04;;;;;;;2.75;1.10;;;;;;;;;;5115500;28;20182;-51
2021/03/12 11:27:32;;;;;;;3.45;1.25;;;;;;;;;;5113858;27;20185;-51
2021/03/12 11:29:58;;;;;;;3.25;1.10;;;;;;;;;;5104393;27;20205;-51
2021/03/12 11:32:25;;;;;;;2.10;1.10;;;;;;;;;;5120965;27;20183;-53
2021/03/12 11:34:51;;;;;;;3.42;1.40;;;;;;;;;;5112552;27;20177;-51
2021/03/12 11:37:17;;;;;;;3.72;1.00;;;;;;;;;;5123047;27;20539;-51
2021/03/12 11:39:43;;;;;;;2.55;1.25;;;;;;;;;;5116416;28;20573;-51
2021/03/12 11:42:09;;;;;;;2.00;1.10;;;;;;;;;;5118047;27;20168;-51
2021/03/12 11:44:35;;;;;;;1.80;1.00;;;;;;;;;;5137311;27;20168;-51
2021/03/12 11:47:02;;;;;;;1.85;1.10;;;;;;;;;;5126342;27;20522;-51
2021/03/12 11:49:28;;;;;;;1.48;1.00;;;;;;;;;;5114652;28;20208;-51
2021/03/12 11:51:54;;;;;;;3.28;1.10;;;;;;;;;;5113637;28;20236;-51
2021/03/12 11:54:20;;;;;;;1.58;1.10;;;;;;;;;;5096112;28;20560;-51
2021/03/12 11:56:46;;;;;;;3.63;1.27;;;;;;;;;;5109961;28;20204;-51
2021/03/12 11:59:12;;;;;;;2.38;1.08;;;;;;;;;;5116348;28;20267;-51
2021/03/12 12:01:38;;;;;;;1.75;0.98;;;;;;;;;;5121715;27;20180;-51
2021/03/12 12:04:05;;;;;;;4.22;1.08;;;;;;;;;;5137066;27;20198;-51
2021/03/12 12:06:31;;;;;;;6.30;1.00;;;;;;;;;;5099805;27;20238;-52
2021/03/12 12:08:57;;;;;;;4.25;1.10;;;;;;;;;;5103255;28;20213;-51
2021/03/12 12:11:24;;;;;;;19.10;4.75;;;;;;;;;;5110879;28;20204;-51
2021/03/12 12:13:50;;;;;;;39.05;9.13;;;;;;;;;;5120151;27;20180;-51
2021/03/12 12:16:16;;;;;;;46.28;8.25;;;;;;;;;;5115758;28;20233;-51
2021/03/12 12:18:42;;;;;;;39.15;9.38;;;;;;;;;;5110601;28;20178;-51
2021/03/12 12:21:08;;;;;;;49.35;10.20;;;;;;;;;;5112509;27;20264;-51
2021/03/12 12:23:34;;;;;;;61.33;12.55;;;;;;;;;;5100126;28;20189;-51
2021/03/12 12:26:01;;;;;;;47.22;11.02;;;;;;;;;;5103014;28;20199;-51
2021/03/12 12:28:27;;;;;;;52.03;13.40;;;;;;;;;;5130325;27;20195;-51
2021/03/12 12:30:53;;;;;;;54.80;13.23;;;;;;;;;;5134975;27;20196;-51
2021/03/12 12:33:19;;;;;;;48.25;12.38;;;;;;;;;;5116608;28;20169;-52
2021/03/12 12:35:46;;;;;;;52.47;13.77;;;;;;;;;;5111576;28;20177;-51
2021/03/12 12:38:12;;;;;;;47.33;11.48;;;;;;;;;;5109345;27;20173;-51
2021/03/12 12:40:38;;;;;;;49.03;11.95;;;;;;;;;;5110991;28;20208;-62
2021/03/12 12:43:04;;;;;;;45.42;10.85;;;;;;;;;;5120641;27;20184;-54
2021/03/12 12:45:31;;;;;;;45.47;11.85;;;;;;;;;;5134308;27;20645;-53
2021/03/12 12:47:57;;;;;;;38.60;10.57;;;;;;;;;;5112612;28;20208;-60
2021/03/12 12:50:23;;;;;;;40.95;10.57;;;;;;;;;;5115646;28;20197;-61
2021/03/12 12:52:49;;;;;;;43.08;10.55;;;;;;;;;;5106122;28;20174;-53
2021/03/12 12:55:16;;;;;;;39.35;10.27;;;;;;;;;;5097621;28;20556;-51
2021/03/12 12:57:42;;;;;;;42.67;11.05;;;;;;;;;;5107886;28;20185;-54
2021/03/12 13:00:09;;;;;;;34.78;10.63;;;;;;;;;;5114288;28;20197;-54
2021/03/12 13:02:35;;;;;;;43.30;10.80;;;;;;;;;;5114182;28;20256;-54
2021/03/12 13:05:01;;;;;;;34.35;10.43;;;;;;;;;;5110333;28;20260;-55
2021/03/12 13:07:27;;;;;;;28.90;9.60;;;;;;;;;;5087154;28;20510;-54
2021/03/12 13:09:53;;;;;;;38.10;10.25;;;;;;;;;;5096307;28;20177;-54
2021/03/12 13:12:19;;;;;;;37.20;11.10;;;;;;;;;;5116270;27;20556;-54
2021/03/12 13:14:45;;;;;;;30.58;9.63;;;;;;;;;;5122874;27;20184;-54
2021/03/12 13:17:11;;;;;;;25.55;8.85;;;;;;;;;;5113073;27;20216;-54
2021/03/12 13:19:37;;;;;;;34.72;9.68;;;;;;;;;;5115493;27;20173;-54
2021/03/12 13:22:04;;;;;;;30.50;9.18;;;;;;;;;;5117848;27;20189;-54
2021/03/12 13:24:30;;;;;;;28.30;9.45;;;;;;;;;;5114807;27;20185;-54
2021/03/12 13:26:55;;;;;;;23.48;8.45;;;;;;;;;;5111271;28;20181;-54
2021/03/12 13:29:22;;;;;;;23.45;8.50;;;;;;;;;;5100153;28;20239;-54
2021/03/12 13:31:47;;;;;;;26.10;8.18;;;;;;;;;;5110156;28;20233;-54
2021/03/12 13:34:13;;;;;;;21.48;7.75;;;;;;;;;;5097035;27;20239;-54
2021/03/12 13:36:39;;;;;;;22.02;7.95;;;;;;;;;;5094541;28;20610;-54
2021/03/12 13:39:06;;;;;;;27.92;8.68;;;;;;;;;;5094711;28;20170;-54
2021/03/12 13:41:33;;;;;;;20.23;6.75;;;;;;;;;;5100566;28;20257;-54
2021/03/12 13:43:59;;;;;;;22.05;7.95;;;;;;;;;;5095789;28;20264;-54
2021/03/12 13:46:25;;;;;;;18.92;6.93;;;;;;;;;;5094367;28;20174;-54
2021/03/12 13:48:51;;;;;;;23.30;7.70;;;;;;;;;;5095362;28;20215;-54
2021/03/12 13:51:17;;;;;;;17.92;7.05;;;;;;;;;;5114289;28;20202;-54
2021/03/12 13:53:43;;;;;;;17.75;7.28;;;;;;;;;;5110127;28;20238;-54
2021/03/12 13:56:09;;;;;;;18.63;7.03;;;;;;;;;;5102493;28;20858;-54
2021/03/12 13:58:35;;;;;;;24.10;7.68;;;;;;;;;;5105520;28;20261;-54
2021/03/12 14:01:01;;;;;;;17.80;6.53;;;;;;;;;;5094566;28;20293;-54
2021/03/12 14:03:27;;;;;;;15.38;6.18;;;;;;;;;;5094234;28;20224;-54
2021/03/12 14:05:53;;;;;;;15.02;6.55;;;;;;;;;;5098169;28;20396;-54
2021/03/12 14:08:19;;;;;;;19.25;6.63;;;;;;;;;;5094605;28;20158;-54
2021/03/12 14:10:45;;;;;;;14.35;5.40;;;;;;;;;;5098623;28;20205;-54
2021/03/12 14:13:11;;;;;;;13.98;6.53;;;;;;;;;;5120517;27;20206;-54
2021/03/12 14:15:37;;;;;;;15.35;5.80;;;;;;;;;;5110328;27;20591;-54
2021/03/12 14:18:03;;;;;;;13.02;5.68;;;;;;;;;;5099491;28;20181;-54
2021/03/12 14:20:29;;;;;;;15.23;5.70;;;;;;;;;;5095630;28;20556;-54
2021/03/12 14:22:56;;;;;;;15.30;5.35;;;;;;;;;;5097655;28;20188;-54
2021/03/12 14:25:21;;;;;;;17.55;5.78;;;;;;;;;;5095454;28;20235;-54
2021/03/12 14:27:47;;;;;;;13.07;5.47;;;;;;;;;;5121587;27;20189;-54
2021/03/12 14:30:14;;;;;;;19.60;5.15;;;;;;;;;;5125291;27;20235;-53
2021/03/12 14:32:40;;;;;;;19.38;5.25;;;;;;;;;;5110653;28;20259;-53
2021/03/12 14:35:06;;;;;;;18.15;4.68;;;;;;;;;;5111881;28;20172;-53
2021/03/12 14:37:32;;;;;;;19.58;5.38;;;;;;;;;;5097173;28;20177;-54
2021/03/12 14:39:58;;;;;;;12.05;4.88;;;;;;;;;;5112335;28;20204;-54
2021/03/12 14:42:24;;;;;;;16.20;4.53;;;;;;;;;;5105758;28;20237;-54